Aviation Services » Terminal Aerodrome Forecasts Wednesday, January 25, 2017
 Terminal Aerodrome Forecasts (TAF)

TAF NVSC 241000Z 2412/2512 VRB03KT 9999 SCT022 =

TAF NVSG 241000Z 2412/2512 VRB03KT 9999 SCT022=

TAF NVSS 241000Z 2412/2512 VRB03KT 9999 SCT022=

TAF NVSL 241000Z 2412/2512 VRB03KT 9999 SCT020=

TAF NVVV 241000Z 2412/2512 VRB03KT 9999 SCT020=

TAF NVVW 241000Z 2412/2512 VRB04KT 9999 SCT020
INTER 2412/2418 9000 -SHRA BKN018=

TAF NVVA 241000Z 2412/2512 12005KT 9999 SCT020
INTER 2412/2418 9000 -SHRA BKN018=